createdAt,value
2018-12-26T00:00:02.203Z,18.47
2018-12-26T00:02:31.510Z,18.33
2018-12-26T00:05:00.700Z,18.77
2018-12-26T00:07:30.331Z,16.80
2018-12-26T00:09:59.491Z,16.10
2018-12-26T00:12:28.796Z,17.50
2018-12-26T00:14:57.972Z,19.17
2018-12-26T00:17:27.116Z,18.20
2018-12-26T00:19:56.903Z,16.23
2018-12-26T00:22:26.257Z,18.10
2018-12-26T00:24:55.575Z,16.70
2018-12-26T00:27:24.804Z,16.00
2018-12-26T00:29:54.427Z,15.03
2018-12-26T00:32:23.729Z,17.03
2018-12-26T00:34:52.998Z,14.90
2018-12-26T00:37:22.242Z,16.93
2018-12-26T00:39:51.393Z,17.53
2018-12-26T00:42:20.630Z,16.57
2018-12-26T00:44:49.871Z,15.37
2018-12-26T00:47:19.123Z,15.23
2018-12-26T00:49:48.424Z,16.43
2018-12-26T00:52:17.848Z,16.47
2018-12-26T00:54:47.081Z,14.57
2018-12-26T00:57:17.117Z,15.47
2018-12-26T00:59:46.311Z,15.90
2018-12-26T01:02:15.910Z,15.77
2018-12-26T01:04:45.594Z,18.33
2018-12-26T01:07:15.144Z,15.80
2018-12-26T01:09:44.349Z,15.40
2018-12-26T01:12:13.609Z,17.57
2018-12-26T01:14:42.833Z,16.13
2018-12-26T01:17:12.083Z,14.97
2018-12-26T01:19:41.365Z,16.50
2018-12-26T01:22:10.890Z,16.30
2018-12-26T01:24:40.057Z,16.93
2018-12-26T01:27:09.315Z,14.87
2018-12-26T01:29:38.586Z,14.77
2018-12-26T01:32:07.745Z,14.00
2018-12-26T01:34:36.937Z,15.57
2018-12-26T01:37:06.109Z,14.67
2018-12-26T01:39:35.358Z,15.57
2018-12-26T01:42:04.618Z,16.77
2018-12-26T01:44:33.791Z,16.77
2018-12-26T01:47:02.960Z,16.60
2018-12-26T01:49:32.540Z,17.17
2018-12-26T01:52:02.094Z,16.47
2018-12-26T01:54:31.333Z,15.33
2018-12-26T01:57:00.525Z,16.47
2018-12-26T01:59:29.790Z,15.10
2018-12-26T02:01:59.223Z,15.00
2018-12-26T02:04:28.433Z,16.13
2018-12-26T02:06:57.664Z,16.77
2018-12-26T02:09:26.838Z,17.47
2018-12-26T02:11:56.036Z,16.77
2018-12-26T02:14:25.859Z,15.63
2018-12-26T02:16:55.104Z,15.53
2018-12-26T02:19:24.316Z,15.47
2018-12-26T02:21:53.459Z,14.83
2018-12-26T02:24:22.628Z,14.97
2018-12-26T02:26:51.837Z,17.03
2018-12-26T02:29:21.055Z,15.93
2018-12-26T02:31:50.300Z,14.90
2018-12-26T02:34:19.485Z,15.53
2018-12-26T02:36:49.404Z,13.97
2018-12-26T02:39:18.654Z,14.83
2018-12-26T02:41:48.150Z,13.10
2018-12-26T02:44:17.792Z,15.00
2018-12-26T02:46:47.266Z,15.10
2018-12-26T02:49:16.769Z,15.17
2018-12-26T02:51:46.417Z,14.10
2018-12-26T02:54:16.104Z,14.17
2018-12-26T02:56:47.792Z,13.70
2018-12-26T02:59:16.263Z,15.27
2018-12-26T03:01:45.445Z,15.50
2018-12-26T03:04:15.352Z,16.20
2018-12-26T03:06:44.540Z,17.00
2018-12-26T03:09:14.064Z,14.67
2018-12-26T03:11:43.260Z,15.80
2018-12-26T03:14:12.492Z,14.60
2018-12-26T03:16:41.741Z,15.70
2018-12-26T03:19:10.997Z,14.53
2018-12-26T03:21:40.167Z,14.30
2018-12-26T03:24:09.695Z,14.67
2018-12-26T03:26:38.916Z,16.13
2018-12-26T03:29:08.524Z,16.90
2018-12-26T03:31:37.839Z,16.47
2018-12-26T03:34:07.101Z,14.03
2018-12-26T03:36:36.279Z,16.13
2018-12-26T03:39:07.051Z,15.83
2018-12-26T03:41:36.690Z,15.33
2018-12-26T03:44:06.403Z,14.83
2018-12-26T03:46:36.318Z,13.63
2018-12-26T03:49:05.609Z,16.13
2018-12-26T03:51:34.761Z,15.40
2018-12-26T03:54:03.934Z,15.43
2018-12-26T03:56:33.191Z,15.33
2018-12-26T03:59:02.357Z,16.50
2018-12-26T04:01:31.844Z,15.03
2018-12-26T04:04:01.154Z,13.40
2018-12-26T04:06:30.395Z,14.87
2018-12-26T04:08:59.863Z,15.73
2018-12-26T04:11:29.654Z,17.33
2018-12-26T04:13:59.015Z,14.43
2018-12-26T04:16:28.575Z,15.17
2018-12-26T04:18:58.094Z,14.47
2018-12-26T04:21:27.990Z,15.87
2018-12-26T04:23:57.136Z,14.07
2018-12-26T04:26:26.827Z,14.90
2018-12-26T04:28:55.978Z,14.63
2018-12-26T04:31:25.173Z,15.27
2018-12-26T04:33:54.390Z,14.67
2018-12-26T04:36:23.552Z,14.97
2018-12-26T04:38:53.168Z,16.53
2018-12-26T04:41:22.379Z,15.20
2018-12-26T04:43:51.655Z,13.90
2018-12-26T04:46:20.927Z,14.87
2018-12-26T04:48:50.521Z,15.83
2018-12-26T04:51:19.703Z,15.80
2018-12-26T04:53:48.930Z,15.27
2018-12-26T04:56:18.209Z,15.07
2018-12-26T04:58:48.211Z,13.47
2018-12-26T05:01:17.401Z,15.73
2018-12-26T05:03:46.668Z,14.57
2018-12-26T05:06:15.835Z,14.93
2018-12-26T05:08:45.372Z,17.37
2018-12-26T05:11:14.583Z,14.10
2018-12-26T05:13:44.073Z,15.13
2018-12-26T05:16:13.238Z,15.80
2018-12-26T05:18:42.423Z,13.87
2018-12-26T05:21:11.652Z,14.47
2018-12-26T05:23:40.825Z,14.30
2018-12-26T05:26:10.383Z,15.70
2018-12-26T05:28:39.554Z,15.60
2018-12-26T05:31:08.721Z,15.30
2018-12-26T05:33:37.902Z,13.93
2018-12-26T05:36:07.047Z,15.67
2018-12-26T05:38:36.208Z,14.97
2018-12-26T05:41:05.492Z,14.17
2018-12-26T05:43:34.979Z,15.10
2018-12-26T05:46:04.148Z,14.60
2018-12-26T05:48:33.798Z,14.47
2018-12-26T05:51:02.979Z,13.37
2018-12-26T05:53:32.236Z,14.53
2018-12-26T05:56:01.513Z,14.30
2018-12-26T05:58:30.826Z,15.37
2018-12-26T06:00:59.967Z,14.80
2018-12-26T06:03:29.139Z,14.73
2018-12-26T06:05:58.591Z,14.73
2018-12-26T06:08:27.743Z,15.20
2018-12-26T06:10:57.026Z,15.57
2018-12-26T06:13:26.196Z,15.87
2018-12-26T06:15:55.403Z,16.37
2018-12-26T06:18:24.902Z,13.83
2018-12-26T06:20:54.379Z,13.73
2018-12-26T06:23:26.487Z,14.83
2018-12-26T06:25:55.979Z,13.57
2018-12-26T06:28:25.133Z,13.93
2018-12-26T06:30:54.355Z,14.77
2018-12-26T06:33:23.535Z,15.23
2018-12-26T06:35:52.688Z,14.87
2018-12-26T06:38:21.823Z,14.57
2018-12-26T06:40:50.999Z,15.20
2018-12-26T06:43:20.143Z,15.63
2018-12-26T06:45:49.280Z,15.53
2018-12-26T06:48:18.787Z,14.87
2018-12-26T06:50:47.998Z,14.17
2018-12-26T06:53:17.151Z,13.63
2018-12-26T06:55:46.347Z,14.73
2018-12-26T06:58:15.568Z,15.77
2018-12-26T07:00:45.535Z,13.93
2018-12-26T07:03:14.781Z,15.30
2018-12-26T07:05:43.952Z,15.23
2018-12-26T07:08:13.198Z,15.63
2018-12-26T07:10:42.369Z,15.03
2018-12-26T07:13:11.530Z,13.43
2018-12-26T07:15:40.692Z,14.60
2018-12-26T07:18:09.892Z,13.77
2018-12-26T07:20:39.108Z,15.00
2018-12-26T07:23:08.574Z,13.67
2018-12-26T07:25:37.830Z,14.20
2018-12-26T07:28:09.268Z,14.10
2018-12-26T07:30:38.651Z,13.63
2018-12-26T07:33:07.837Z,15.63
2018-12-26T07:35:36.987Z,13.83
2018-12-26T07:38:06.153Z,13.13
2018-12-26T07:40:35.403Z,14.73
2018-12-26T07:43:04.644Z,13.03
2018-12-26T07:45:34.607Z,15.20
2018-12-26T07:48:03.873Z,15.50
2018-12-26T07:50:33.098Z,15.50
2018-12-26T07:53:02.971Z,14.33
2018-12-26T07:55:33.112Z,15.37
2018-12-26T07:58:02.243Z,14.13
2018-12-26T08:00:31.395Z,13.43
2018-12-26T08:03:01.014Z,15.27
2018-12-26T08:05:30.247Z,15.87
2018-12-26T08:07:59.421Z,14.77
2018-12-26T08:10:28.723Z,13.63
2018-12-26T08:12:57.963Z,13.97
2018-12-26T08:15:27.125Z,14.73
2018-12-26T08:17:56.655Z,14.97
2018-12-26T08:20:25.815Z,14.67
2018-12-26T08:22:55.047Z,15.37
2018-12-26T08:25:24.539Z,14.33
2018-12-26T08:27:53.675Z,15.77
2018-12-26T08:30:22.911Z,14.27
2018-12-26T08:32:52.464Z,13.33
2018-12-26T08:35:21.730Z,15.07
2018-12-26T08:37:50.872Z,14.73
2018-12-26T08:40:20.493Z,15.87
2018-12-26T08:42:49.650Z,14.77
2018-12-26T08:45:18.807Z,13.40
2018-12-26T08:47:47.985Z,14.23
2018-12-26T08:50:17.142Z,14.27
2018-12-26T08:52:46.638Z,14.47
2018-12-26T08:55:15.806Z,13.90
2018-12-26T08:57:44.938Z,14.63
2018-12-26T09:00:14.448Z,14.60
2018-12-26T09:02:44.064Z,13.87
2018-12-26T09:05:13.221Z,14.97
2018-12-26T09:07:42.431Z,13.37
2018-12-26T09:10:12.371Z,13.90
2018-12-26T09:12:41.633Z,15.03
2018-12-26T09:15:11.003Z,14.73
2018-12-26T09:17:40.168Z,13.83
2018-12-26T09:20:09.322Z,14.60
2018-12-26T09:22:38.504Z,14.90
2018-12-26T09:25:07.872Z,13.70
2018-12-26T09:27:38.063Z,15.13
2018-12-26T09:30:08.249Z,15.20
2018-12-26T09:32:37.555Z,14.33
2018-12-26T09:35:07.994Z,14.97
2018-12-26T09:37:37.223Z,13.20
2018-12-26T09:40:06.999Z,14.20
2018-12-26T09:42:36.260Z,13.90
2018-12-26T09:45:06.395Z,14.83
2018-12-26T09:47:54.719Z,14.10
2018-12-26T09:50:23.976Z,14.53
2018-12-26T09:52:53.191Z,14.97
2018-12-26T09:55:22.371Z,15.17
2018-12-26T09:57:51.859Z,15.30
2018-12-26T10:00:21.348Z,14.27
2018-12-26T10:02:50.896Z,14.57
2018-12-26T10:05:20.523Z,14.00
2018-12-26T10:07:49.751Z,14.50
2018-12-26T10:10:18.936Z,14.63
2018-12-26T10:12:48.183Z,14.60
2018-12-26T10:15:17.374Z,14.13
2018-12-26T10:17:46.583Z,14.57
2018-12-26T10:20:15.825Z,14.17
2018-12-26T10:22:45.007Z,13.57
2018-12-26T10:25:14.211Z,13.73
2018-12-26T10:27:43.446Z,13.43
2018-12-26T10:30:13.053Z,12.77
2018-12-26T10:32:42.300Z,15.10
2018-12-26T10:35:11.458Z,13.00
2018-12-26T10:37:41.167Z,14.13
2018-12-26T10:40:10.544Z,14.50
2018-12-26T10:42:39.733Z,15.10
2018-12-26T10:45:08.958Z,14.27
2018-12-26T10:47:38.256Z,13.80
2018-12-26T10:50:10.249Z,13.50
2018-12-26T10:52:39.489Z,13.20
2018-12-26T10:55:08.674Z,12.70
2018-12-26T10:57:37.916Z,14.20
2018-12-26T11:00:09.169Z,13.93
2018-12-26T11:02:38.651Z,13.17
2018-12-26T11:07:36.793Z,11.70
2018-12-26T11:10:06.619Z,13.50
2018-12-26T11:12:35.946Z,13.60
2018-12-26T11:15:06.323Z,13.53
2018-12-26T11:17:35.735Z,13.97
2018-12-26T11:20:06.613Z,13.03
2018-12-26T11:22:35.845Z,13.77
2018-12-26T11:25:05.657Z,13.43
2018-12-26T11:27:35.156Z,13.30
2018-12-26T11:30:04.499Z,14.00
2018-12-26T11:32:33.695Z,11.87
2018-12-26T11:37:34.771Z,13.00
2018-12-26T11:40:04.063Z,14.80
2018-12-26T11:42:33.215Z,12.80
2018-12-26T11:45:02.384Z,13.00
2018-12-26T11:47:31.587Z,13.93
2018-12-26T11:52:35.673Z,13.80
2018-12-26T11:55:05.516Z,14.23
2018-12-26T11:57:36.838Z,14.17
2018-12-26T12:00:05.996Z,12.93
2018-12-26T12:02:35.555Z,12.03
2018-12-26T12:05:04.892Z,12.93
2018-12-26T12:07:34.380Z,11.47
2018-12-26T12:10:04.028Z,13.57
2018-12-26T12:12:33.176Z,13.30
2018-12-26T12:15:02.388Z,12.57
2018-12-26T12:17:31.553Z,13.77
2018-12-26T12:20:00.780Z,14.30
2018-12-26T12:22:31.993Z,12.80
2018-12-26T12:25:01.244Z,12.53
2018-12-26T12:27:30.387Z,11.10
2018-12-26T12:29:59.916Z,12.57
2018-12-26T12:32:29.060Z,11.70
2018-12-26T12:37:48.318Z,12.13
2018-12-26T12:40:17.472Z,12.60
2018-12-26T12:42:47.168Z,13.10
2018-12-26T12:45:16.535Z,12.67
2018-12-26T12:47:45.804Z,12.03
2018-12-26T12:50:15.157Z,12.87
2018-12-26T12:52:44.349Z,13.20
2018-12-26T12:55:13.899Z,12.67
2018-12-26T12:57:43.359Z,12.97
2018-12-26T13:00:18.345Z,13.97
2018-12-26T13:02:47.944Z,12.80
2018-12-26T13:05:17.183Z,12.20
2018-12-26T13:07:46.444Z,13.23
2018-12-26T13:10:15.937Z,14.17
2018-12-26T13:12:45.112Z,13.00
2018-12-26T13:15:14.401Z,13.20
2018-12-26T13:17:43.633Z,12.60
2018-12-26T13:20:12.923Z,12.90
2018-12-26T13:22:42.128Z,12.67
2018-12-26T13:25:11.427Z,12.53
2018-12-26T13:27:40.656Z,13.63
2018-12-26T13:30:10.570Z,13.10
2018-12-26T13:32:39.738Z,13.43
2018-12-26T13:35:08.897Z,13.70
2018-12-26T13:37:44.511Z,13.83
2018-12-26T13:40:13.667Z,13.87
2018-12-26T13:42:42.868Z,13.57
2018-12-26T13:45:12.060Z,13.63
2018-12-26T13:47:41.310Z,14.53
2018-12-26T13:50:10.561Z,13.27
2018-12-26T13:52:40.153Z,15.37
2018-12-26T13:55:09.338Z,13.70
2018-12-26T13:57:38.656Z,13.37
2018-12-26T14:00:09.914Z,14.30
2018-12-26T14:02:39.185Z,14.33
2018-12-26T14:05:08.496Z,12.70
2018-12-26T14:07:37.671Z,13.83
2018-12-26T14:10:08.634Z,14.97
2018-12-26T14:12:37.792Z,13.40
2018-12-26T14:15:08.079Z,14.63
2018-12-26T14:17:37.311Z,13.00
2018-12-26T14:20:06.995Z,13.17
2018-12-26T14:22:36.261Z,13.60
2018-12-26T14:25:06.324Z,12.90
2018-12-26T14:27:35.472Z,15.03
2018-12-26T14:30:11.103Z,13.73
2018-12-26T14:32:36.220Z,14.07
2018-12-26T14:35:06.827Z,14.53
2018-12-26T14:37:36.080Z,13.70
2018-12-26T14:40:06.849Z,14.00
2018-12-26T14:42:36.074Z,13.07
2018-12-26T14:45:05.268Z,14.43
2018-12-26T14:47:34.824Z,13.77
2018-12-26T14:50:05.045Z,14.30
2018-12-26T14:52:34.549Z,13.50
2018-12-26T14:55:03.706Z,14.70
2018-12-26T14:57:32.945Z,14.00
2018-12-26T15:00:02.130Z,14.57
2018-12-26T15:02:31.312Z,13.60
2018-12-26T15:05:01.026Z,13.97
2018-12-26T15:07:30.295Z,13.93
2018-12-26T15:09:59.531Z,14.37
2018-12-26T15:12:28.694Z,13.43
2018-12-26T15:14:58.010Z,13.53
2018-12-26T15:17:27.565Z,13.67
2018-12-26T15:19:56.806Z,13.57
2018-12-26T15:22:27.816Z,15.00
2018-12-26T15:24:56.974Z,13.43
2018-12-26T15:27:26.226Z,13.93
2018-12-26T15:29:55.505Z,13.23
2018-12-26T15:32:25.109Z,12.70
2018-12-26T15:34:54.258Z,13.30
2018-12-26T15:37:23.866Z,13.63
2018-12-26T15:39:53.413Z,13.27
2018-12-26T15:42:22.567Z,12.80
2018-12-26T15:44:51.832Z,13.07
2018-12-26T15:47:21.321Z,14.73
2018-12-26T15:49:50.833Z,14.73
2018-12-26T15:52:20.128Z,14.80
2018-12-26T15:54:49.304Z,13.17
2018-12-26T15:57:18.899Z,13.93
2018-12-26T15:59:49.174Z,13.80
2018-12-26T16:02:18.763Z,12.63
2018-12-26T16:04:47.978Z,16.45
2018-12-26T16:09:52.990Z,14.03
2018-12-26T16:12:22.215Z,14.70
2018-12-26T16:14:51.775Z,13.30
2018-12-26T16:17:21.414Z,14.97
2018-12-26T16:19:50.567Z,13.50
2018-12-26T16:22:23.891Z,13.97
2018-12-26T16:24:53.128Z,15.20
2018-12-26T16:27:22.610Z,13.30
2018-12-26T16:29:51.808Z,14.43
2018-12-26T16:32:20.984Z,13.83
2018-12-26T16:34:50.621Z,14.40
2018-12-26T16:37:20.257Z,12.97
2018-12-26T16:39:49.409Z,13.97
2018-12-26T16:42:18.985Z,13.43
2018-12-26T16:44:48.256Z,14.07
2018-12-26T16:47:17.405Z,13.33
2018-12-26T16:49:47.088Z,13.03
2018-12-26T16:52:16.279Z,14.73
2018-12-26T16:54:45.576Z,14.87
2018-12-26T16:57:14.820Z,15.17
2018-12-26T16:59:44.052Z,15.70
2018-12-26T17:02:13.355Z,14.70
2018-12-26T17:04:42.519Z,16.53
2018-12-26T17:07:30.773Z,14.93
2018-12-26T17:10:00.285Z,15.73
2018-12-26T17:12:29.442Z,14.47
2018-12-26T17:14:58.635Z,13.63
2018-12-26T17:17:28.206Z,16.13
2018-12-26T17:19:57.387Z,15.43
2018-12-26T17:22:26.639Z,17.23
2018-12-26T17:24:55.965Z,16.40
2018-12-26T17:27:25.206Z,19.80
2018-12-26T17:29:54.557Z,22.17
2018-12-26T17:32:23.930Z,26.17
2018-12-26T17:34:53.094Z,26.10
2018-12-26T17:37:41.416Z,26.20
2018-12-26T17:40:10.667Z,22.67
2018-12-26T17:42:40.157Z,23.67
2018-12-26T17:45:09.715Z,21.53
2018-12-26T17:47:38.979Z,19.33
2018-12-26T17:50:31.597Z,19.30
2018-12-26T17:53:00.766Z,18.97
2018-12-26T17:56:22.200Z,17.53
2018-12-26T17:59:14.127Z,18.03
2018-12-26T18:01:57.769Z,16.63
2018-12-26T18:04:26.973Z,14.80
2018-12-26T18:06:56.216Z,17.50
2018-12-26T18:09:44.672Z,16.07
2018-12-26T18:12:13.914Z,16.03
2018-12-26T18:14:43.344Z,15.40
2018-12-26T18:17:12.699Z,14.03
2018-12-26T18:19:42.279Z,14.57
2018-12-26T18:22:11.540Z,17.00
2018-12-26T18:25:00.305Z,14.53
2018-12-26T18:27:29.720Z,15.93
2018-12-26T18:29:58.879Z,16.33
2018-12-26T18:32:28.206Z,15.80
2018-12-26T18:34:57.438Z,15.73
2018-12-26T18:37:26.688Z,15.97
2018-12-26T18:40:14.977Z,16.40
2018-12-26T18:42:44.290Z,15.93
2018-12-26T18:45:13.615Z,16.37
2018-12-26T18:47:43.215Z,16.70
2018-12-26T18:50:12.547Z,16.37
2018-12-26T18:53:00.961Z,17.83
2018-12-26T18:55:30.237Z,17.57
2018-12-26T18:57:59.475Z,16.23
2018-12-26T19:00:29.157Z,16.13
2018-12-26T19:02:58.413Z,15.43
2018-12-26T19:05:27.716Z,14.83
2018-12-26T19:07:57.122Z,15.70
2018-12-26T19:10:26.719Z,17.67
2018-12-26T19:12:55.958Z,16.33
2018-12-26T19:15:25.520Z,16.97
2018-12-26T19:17:54.761Z,16.07
2018-12-26T19:20:24.333Z,18.93
2018-12-26T19:22:54.855Z,18.03
2018-12-26T19:27:52.994Z,17.83
2018-12-26T19:30:22.208Z,13.67
2018-12-26T19:32:51.545Z,17.63
2018-12-26T19:35:20.800Z,18.87
2018-12-26T19:37:50.089Z,18.90
2018-12-26T19:40:20.050Z,19.47
2018-12-26T19:42:51.883Z,16.20
2018-12-26T19:45:21.167Z,18.80
2018-12-26T19:47:50.423Z,16.70
2018-12-26T19:50:19.971Z,16.87
2018-12-26T19:52:49.228Z,19.03
2018-12-26T19:55:18.850Z,19.40
2018-12-26T19:57:48.080Z,20.17
2018-12-26T20:00:17.352Z,20.23
2018-12-26T20:02:46.537Z,19.80
2018-12-26T20:05:15.790Z,20.23
2018-12-26T20:07:44.974Z,19.60
2018-12-26T20:10:14.182Z,18.10
2018-12-26T20:12:43.454Z,18.67
2018-12-26T20:15:12.665Z,19.47
2018-12-26T20:17:41.850Z,18.83
2018-12-26T20:20:11.069Z,20.07
2018-12-26T20:22:40.419Z,19.90
2018-12-26T20:25:09.812Z,20.00
2018-12-26T20:27:38.986Z,20.80
2018-12-26T20:30:10.284Z,19.97
2018-12-26T20:32:39.448Z,18.43
2018-12-26T20:35:08.711Z,19.90
2018-12-26T20:37:37.938Z,16.13
2018-12-26T20:40:08.370Z,19.57
2018-12-26T20:42:37.537Z,18.13
2018-12-26T20:45:09.088Z,19.60
2018-12-26T20:47:38.427Z,19.57
2018-12-26T20:50:09.013Z,18.77
2018-12-26T20:52:38.466Z,17.70
2018-12-26T20:55:08.259Z,17.00
2018-12-26T20:57:37.529Z,16.87
2018-12-26T21:00:09.395Z,17.30
2018-12-26T21:02:38.684Z,16.50
2018-12-26T21:05:09.379Z,15.87
2018-12-26T21:07:38.697Z,15.53
2018-12-26T21:10:08.957Z,18.17
2018-12-26T21:12:38.232Z,17.40
2018-12-26T21:15:08.140Z,15.83
2018-12-26T21:17:37.710Z,17.57
2018-12-26T21:20:08.402Z,17.00
2018-12-26T21:22:38.288Z,16.97
2018-12-26T21:25:09.451Z,18.70
2018-12-26T21:27:38.705Z,16.47
2018-12-26T21:30:11.782Z,16.30
2018-12-26T21:32:41.108Z,17.70
2018-12-26T21:35:10.382Z,16.47
2018-12-26T21:37:39.621Z,16.60
2018-12-26T21:40:09.411Z,17.87
2018-12-26T21:42:39.332Z,14.80
2018-12-26T21:47:58.853Z,17.33
2018-12-26T21:50:28.224Z,17.77
2018-12-26T21:52:57.721Z,17.27
2018-12-26T21:55:26.920Z,16.70
2018-12-26T21:57:56.100Z,16.23
2018-12-26T22:00:25.354Z,17.57
2018-12-26T22:02:54.621Z,16.40
2018-12-26T22:05:23.883Z,17.87
2018-12-26T22:07:53.128Z,17.90
2018-12-26T22:10:22.911Z,14.93
2018-12-26T22:12:52.985Z,18.33
2018-12-26T22:17:57.123Z,16.77
2018-12-26T22:20:26.382Z,18.37
2018-12-26T22:22:55.681Z,18.67
2018-12-26T22:25:25.263Z,17.93
2018-12-26T22:27:54.602Z,16.50
2018-12-26T22:30:24.067Z,19.13
2018-12-26T22:32:53.273Z,17.53
2018-12-26T22:35:22.426Z,16.80
2018-12-26T22:37:52.014Z,16.43
2018-12-26T22:40:21.909Z,15.77
2018-12-26T22:42:51.410Z,15.97
2018-12-26T22:45:20.710Z,16.13
2018-12-26T22:47:50.024Z,17.70
2018-12-26T22:50:19.189Z,15.57
2018-12-26T22:52:48.428Z,17.80
2018-12-26T22:55:17.624Z,16.63
2018-12-26T22:57:46.867Z,18.80
2018-12-26T23:00:18.904Z,17.37
2018-12-26T23:02:48.103Z,18.27
2018-12-26T23:05:17.537Z,17.97
2018-12-26T23:07:47.085Z,17.27
2018-12-26T23:10:16.352Z,17.37
2018-12-26T23:12:45.871Z,15.73
2018-12-26T23:15:15.443Z,16.90
2018-12-26T23:17:44.763Z,16.10
2018-12-26T23:20:13.994Z,15.93
2018-12-26T23:22:43.186Z,16.67
2018-12-26T23:25:12.386Z,15.57
2018-12-26T23:27:41.601Z,16.30
2018-12-26T23:30:10.745Z,16.27
2018-12-26T23:32:46.739Z,15.83
2018-12-26T23:35:10.979Z,16.77
2018-12-26T23:37:40.225Z,16.63
2018-12-26T23:40:09.951Z,15.80
2018-12-26T23:42:39.580Z,17.00
2018-12-26T23:45:08.801Z,16.67
2018-12-26T23:47:38.065Z,15.50
2018-12-26T23:50:07.319Z,17.30
2018-12-26T23:52:36.819Z,18.00
2018-12-26T23:55:06.265Z,17.03
2018-12-26T23:57:35.836Z,17.07
